KFYG

Washington Regional Airport

Washington, Missouri, USA
METAR KFYG 191455Z AUTO 12003KT 9SM FEW018 26/22 A2996 RMK AO2
Observed Flight Rules
Aug-19 @ 14:55 UTC (43 minutes ago) Visual Flight Rules
Wind Visibility Clouds
120° at 3 knots 9 miles
  • Few at 1,800' AGL
Temperatures Readings
Current 26°C / 79°F
Dewpoint 22°C / 72°F
Humidity 79%
Altimeter 29.96" Hg
Pressure 1015 hPa
Elevation 149
METAR KFYG 191455Z AUTO 12003KT 9SM FEW018 26/22 A2996 RMK AO2
Observed Flight Rules
Aug-19 @ 14:55 UTC
(43 minutes ago)
VFR
Wind Visibility
120° at 3 knots 9 miles
Clouds
  • Few at 1,800' AGL
Temperature Dewpoint
26°C / 79°F 22°C / 72°F
Humidity Altimeter Pressure
79% 29.96" Hg 1015 hPa